createdAt,value
2023-04-16T00:04:33.175Z,17.08
2023-04-16T00:09:35.503Z,16.71
2023-04-16T00:14:37.573Z,16.81
2023-04-16T00:19:39.781Z,16.95
2023-04-16T00:24:42.394Z,16.73
2023-04-16T00:29:44.584Z,16.55
2023-04-16T00:34:46.706Z,16.98
2023-04-16T00:39:48.903Z,17.10
2023-04-16T00:44:51.247Z,16.44
2023-04-16T00:49:53.462Z,16.38
2023-04-16T00:54:56.854Z,16.58
2023-04-16T00:59:59.380Z,16.94
2023-04-16T01:05:02.302Z,16.94
2023-04-16T01:10:05.030Z,17.02
2023-04-16T01:15:08.186Z,16.55
2023-04-16T01:20:10.826Z,16.56
2023-04-16T01:25:16.658Z,17.05
2023-04-16T01:30:19.151Z,16.84
2023-04-16T01:35:21.305Z,17.46
2023-04-16T01:40:23.476Z,17.18
2023-04-16T01:45:25.936Z,17.16
2023-04-16T01:50:28.780Z,17.40
2023-04-16T01:55:31.947Z,17.27
2023-04-16T02:00:34.174Z,17.28
2023-04-16T02:05:36.290Z,17.21
2023-04-16T02:10:38.371Z,17.17
2023-04-16T02:15:40.583Z,16.96
2023-04-16T02:20:44.059Z,16.63
2023-04-16T02:25:47.654Z,16.68
2023-04-16T02:30:49.805Z,16.66
2023-04-16T02:35:51.985Z,16.42
2023-04-16T02:40:54.127Z,16.73
2023-04-16T02:45:56.365Z,16.29
2023-04-16T02:50:58.722Z,16.48
2023-04-16T02:56:01.092Z,16.04
2023-04-16T03:01:03.582Z,16.33
2023-04-16T03:06:05.905Z,16.64
2023-04-16T03:11:08.190Z,16.66
2023-04-16T03:16:10.443Z,15.92
2023-04-16T03:21:12.672Z,16.26
2023-04-16T03:26:14.872Z,16.06
2023-04-16T03:31:17.363Z,15.83
2023-04-16T03:36:19.859Z,15.87
2023-04-16T03:41:22.113Z,15.82
2023-04-16T03:46:24.359Z,15.99
2023-04-16T03:51:26.883Z,15.57
2023-04-16T03:56:29.130Z,16.11
2023-04-16T04:01:31.490Z,15.96
2023-04-16T04:06:33.936Z,15.52
2023-04-16T04:11:36.234Z,15.58
2023-04-16T04:16:38.525Z,16.01
2023-04-16T04:21:40.788Z,15.95
2023-04-16T04:26:43.106Z,15.83
2023-04-16T04:31:45.452Z,16.31
2023-04-16T04:36:47.877Z,15.98
2023-04-16T04:41:50.116Z,16.06
2023-04-16T04:46:52.338Z,16.17
2023-04-16T04:51:54.493Z,15.27
2023-04-16T04:56:56.991Z,15.73
2023-04-16T05:01:59.160Z,15.75
2023-04-16T05:07:02.764Z,15.77
2023-04-16T05:12:05.103Z,15.67
2023-04-16T05:17:08.348Z,15.91
2023-04-16T05:22:10.581Z,16.00
2023-04-16T05:27:12.890Z,15.96
2023-04-16T05:32:15.292Z,16.23
2023-04-16T05:37:17.470Z,16.87
2023-04-16T05:42:19.709Z,16.60
2023-04-16T05:47:21.997Z,16.17
2023-04-16T05:52:24.227Z,16.74
2023-04-16T05:57:26.501Z,17.22
2023-04-16T06:02:30.853Z,17.70
2023-04-16T06:07:33.146Z,18.03
2023-04-16T06:12:35.673Z,18.59
2023-04-16T06:17:37.890Z,17.70
2023-04-16T06:22:40.153Z,18.27
2023-04-16T06:27:42.354Z,18.13
2023-04-16T06:32:44.913Z,18.18
2023-04-16T06:37:47.506Z,18.46
2023-04-16T06:42:49.821Z,19.00
2023-04-16T06:47:52.820Z,18.78
2023-04-16T06:52:56.039Z,19.28
2023-04-16T06:57:58.309Z,18.73
2023-04-16T07:03:02.933Z,18.89
2023-04-16T07:08:05.309Z,19.73
2023-04-16T07:13:07.678Z,19.16
2023-04-16T07:18:10.056Z,19.77
2023-04-16T07:23:12.489Z,19.77
2023-04-16T07:28:17.073Z,20.11
2023-04-16T07:33:19.211Z,20.26
2023-04-16T07:38:21.467Z,20.15
2023-04-16T07:43:23.666Z,20.26
2023-04-16T07:48:26.495Z,20.72
2023-04-16T07:53:28.652Z,20.25
2023-04-16T07:58:30.737Z,20.37
2023-04-16T08:03:33.537Z,20.42
2023-04-16T08:08:35.790Z,20.02
2023-04-16T08:13:38.027Z,20.05
2023-04-16T08:18:40.092Z,19.96
2023-04-16T08:23:42.407Z,20.42
2023-04-16T08:28:44.534Z,20.75
2023-04-16T08:33:46.718Z,20.97
2023-04-16T08:38:48.843Z,20.91
2023-04-16T08:43:56.699Z,21.18
2023-04-16T08:49:02.049Z,21.12
2023-04-16T08:54:06.026Z,20.90
2023-04-16T08:59:09.931Z,20.86
2023-04-16T09:04:14.446Z,20.59
2023-04-16T09:09:18.074Z,20.74
2023-04-16T09:14:20.667Z,20.69
2023-04-16T09:19:24.004Z,20.74
2023-04-16T09:24:26.628Z,20.99
2023-04-16T09:29:36.579Z,20.57
2023-04-16T09:35:02.105Z,20.68
2023-04-16T09:40:06.287Z,20.24
2023-04-16T09:45:08.799Z,20.01
2023-04-16T09:50:18.136Z,20.55
2023-04-16T09:55:27.565Z,21.11
2023-04-16T10:00:32.260Z,21.44
2023-04-16T10:05:34.602Z,21.22
2023-04-16T10:10:37.051Z,21.77
2023-04-16T10:15:42.560Z,22.02
2023-04-16T10:20:45.222Z,21.88
2023-04-16T10:25:49.390Z,21.85
2023-04-16T10:30:55.746Z,21.77
2023-04-16T10:36:12.383Z,21.30
2023-04-16T10:41:14.962Z,21.76
2023-04-16T10:46:30.906Z,22.23
2023-04-16T10:51:35.219Z,21.24
2023-04-16T10:56:38.744Z,21.54
2023-04-16T11:01:45.253Z,20.89
2023-04-16T11:07:14.482Z,21.06
2023-04-16T11:12:18.873Z,21.46
2023-04-16T11:17:22.201Z,21.35
2023-04-16T11:22:24.856Z,20.81
2023-04-16T11:27:27.699Z,21.00
2023-04-16T11:32:33.431Z,21.56
2023-04-16T11:37:37.351Z,21.50
2023-04-16T11:42:42.209Z,21.41
2023-04-16T11:47:50.606Z,21.41
2023-04-16T11:52:55.584Z,20.84
2023-04-16T11:58:00.475Z,20.93
2023-04-16T12:03:03.834Z,21.43
2023-04-16T12:08:10.590Z,21.88
2023-04-16T12:13:14.534Z,22.37
2023-04-16T12:18:17.990Z,22.54
2023-04-16T12:23:25.199Z,22.54
2023-04-16T12:28:30.214Z,22.54
2023-04-16T12:33:32.868Z,22.87
2023-04-16T12:38:35.023Z,22.72
2023-04-16T12:43:37.342Z,23.11
2023-04-16T12:48:39.534Z,22.62
2023-04-16T12:53:41.979Z,22.56
2023-04-16T12:58:44.282Z,23.08
2023-04-16T13:03:47.522Z,23.77
2023-04-16T13:08:49.860Z,24.33
2023-04-16T13:13:52.163Z,24.58
2023-04-16T13:18:54.572Z,23.60
2023-04-16T13:23:56.962Z,23.96
2023-04-16T13:28:59.287Z,24.23
2023-04-16T13:34:02.145Z,24.26
2023-04-16T13:39:11.761Z,24.00
2023-04-16T13:44:14.056Z,23.78
2023-04-16T13:49:16.518Z,24.08
2023-04-16T13:54:18.608Z,24.70
2023-04-16T13:59:21.077Z,25.26
2023-04-16T14:04:23.784Z,25.18
2023-04-16T14:09:27.357Z,24.86
2023-04-16T14:14:29.545Z,24.81
2023-04-16T14:19:31.707Z,24.25
2023-04-16T14:24:33.865Z,23.72
2023-04-16T14:29:36.806Z,23.42
2023-04-16T14:34:38.914Z,22.63
2023-04-16T14:39:41.458Z,22.55
2023-04-16T14:44:43.603Z,22.61
2023-04-16T14:49:46.069Z,22.72
2023-04-16T14:54:48.452Z,22.55
2023-04-16T14:59:50.912Z,22.94
2023-04-16T15:04:53.894Z,22.70
2023-04-16T15:09:56.170Z,22.72
2023-04-16T15:15:00.834Z,22.81
2023-04-16T15:20:06.875Z,22.67
2023-04-16T15:25:09.477Z,22.50
2023-04-16T15:30:12.946Z,22.43
2023-04-16T15:35:15.141Z,22.55
2023-04-16T15:40:19.086Z,22.52
2023-04-16T15:45:21.590Z,22.34
2023-04-16T15:50:24.043Z,22.07
2023-04-16T15:55:26.777Z,21.99
2023-04-16T16:00:28.929Z,22.00
2023-04-16T16:05:31.285Z,21.87
2023-04-16T16:10:33.451Z,21.79
2023-04-16T16:15:35.751Z,21.76
2023-04-16T16:20:38.737Z,21.67
2023-04-16T16:25:42.417Z,21.29
2023-04-16T16:30:45.291Z,21.41
2023-04-16T16:35:47.577Z,21.24
2023-04-16T16:40:49.793Z,21.47
2023-04-16T16:45:52.786Z,20.40
2023-04-16T16:50:54.948Z,19.02
2023-04-16T16:55:57.183Z,18.78
2023-04-16T17:01:00.831Z,18.27
2023-04-16T17:06:03.289Z,18.09
2023-04-16T17:11:05.425Z,18.08
2023-04-16T17:16:07.816Z,18.66
2023-04-16T17:21:10.040Z,18.59
2023-04-16T17:26:12.174Z,19.06
2023-04-16T17:31:15.656Z,19.22
2023-04-16T17:36:19.883Z,19.28
2023-04-16T17:41:22.058Z,19.29
2023-04-16T17:46:24.278Z,19.36
2023-04-16T17:51:27.738Z,19.56
2023-04-16T17:56:29.940Z,19.38
2023-04-16T18:01:32.304Z,18.89
2023-04-16T18:06:34.515Z,18.85
2023-04-16T18:11:37.737Z,19.23
2023-04-16T18:16:40.005Z,19.02
2023-04-16T18:21:42.899Z,19.40
2023-04-16T18:26:46.973Z,19.17
2023-04-16T18:31:51.663Z,19.18
2023-04-16T18:36:54.318Z,19.25
2023-04-16T18:41:57.068Z,19.57
2023-04-16T18:46:59.304Z,19.10
2023-04-16T18:52:02.743Z,19.11
2023-04-16T18:57:05.173Z,18.62
2023-04-16T19:02:07.798Z,18.47
2023-04-16T19:07:09.994Z,17.90
2023-04-16T19:12:12.313Z,17.40
2023-04-16T19:17:14.656Z,17.33
2023-04-16T19:22:16.776Z,17.44
2023-04-16T19:27:19.541Z,17.57
2023-04-16T19:32:21.873Z,17.47
2023-04-16T19:37:24.297Z,16.79
2023-04-16T19:42:26.761Z,16.74
2023-04-16T19:47:29.143Z,16.85
2023-04-16T19:52:37.620Z,17.19
2023-04-16T19:57:40.787Z,16.09
2023-04-16T20:02:43.107Z,16.53
2023-04-16T20:07:45.386Z,15.89
2023-04-16T20:12:48.674Z,15.91
2023-04-16T20:17:51.121Z,16.02
2023-04-16T20:22:53.431Z,16.13
2023-04-16T20:27:55.778Z,16.25
2023-04-16T20:32:58.803Z,15.54
2023-04-16T20:38:01.841Z,15.88
2023-04-16T20:43:04.328Z,15.86
2023-04-16T20:48:06.820Z,15.79
2023-04-16T20:53:09.107Z,16.05
2023-04-16T20:58:11.554Z,16.17
2023-04-16T21:03:14.006Z,16.10
2023-04-16T21:08:20.967Z,16.34
2023-04-16T21:13:23.162Z,15.83
2023-04-16T21:18:25.374Z,15.90
2023-04-16T21:23:27.746Z,16.29
2023-04-16T21:28:29.927Z,16.24
2023-04-16T21:33:32.249Z,15.97
2023-04-16T21:38:34.491Z,15.81
2023-04-16T21:43:36.689Z,16.27
2023-04-16T21:48:38.866Z,15.88
2023-04-16T21:53:41.078Z,16.34
2023-04-16T21:58:43.273Z,16.98
2023-04-16T22:03:47.521Z,16.95
2023-04-16T22:08:50.282Z,17.15
2023-04-16T22:13:52.473Z,17.15
2023-04-16T22:18:55.276Z,17.07
2023-04-16T22:23:57.447Z,16.97
2023-04-16T22:28:59.606Z,17.12
2023-04-16T22:34:03.349Z,17.29
2023-04-16T22:39:08.887Z,17.27
2023-04-16T22:44:11.255Z,17.11
2023-04-16T22:49:14.193Z,17.36
2023-04-16T22:54:18.474Z,17.38
2023-04-16T22:59:20.829Z,16.81
2023-04-16T23:04:23.072Z,16.57
2023-04-16T23:09:26.119Z,16.62
2023-04-16T23:14:28.345Z,15.24
2023-04-16T23:19:32.270Z,15.51
2023-04-16T23:24:34.572Z,15.63
2023-04-16T23:29:36.827Z,15.65
2023-04-16T23:34:38.989Z,15.34
2023-04-16T23:39:41.367Z,15.39
2023-04-16T23:44:43.508Z,15.44
2023-04-16T23:49:45.876Z,15.73
2023-04-16T23:54:48.082Z,15.92
2023-04-16T23:59:50.412Z,16.19
